createdAt,value
2019-02-04T00:00:35.196Z,99188.03
2019-02-04T00:09:19.000Z,99192.86
2019-02-04T00:13:24.771Z,99189.27
2019-02-04T00:23:16.875Z,99193.95
2019-02-04T00:27:22.566Z,99196.52
2019-02-04T00:31:28.224Z,99202.32
2019-02-04T00:35:34.043Z,99211.10
2019-02-04T00:39:39.713Z,99199.54
2019-02-04T00:53:58.882Z,99204.39
2019-02-04T00:58:04.805Z,99207.31
2019-02-04T01:02:10.839Z,99215.81
2019-02-04T01:06:16.605Z,99203.50
2019-02-04T01:10:30.794Z,99208.45
2019-02-04T01:14:36.475Z,99211.56
2019-02-04T01:18:42.201Z,99216.01
2019-02-04T01:22:47.943Z,99220.95
2019-02-04T01:26:53.620Z,99228.26
2019-02-04T01:30:59.309Z,99230.07
2019-02-04T01:35:05.885Z,99238.02
2019-02-04T01:39:11.971Z,99236.20
2019-02-04T01:43:17.644Z,99239.16
2019-02-04T01:47:23.628Z,99248.09
2019-02-04T01:51:29.338Z,99253.58
2019-02-04T01:55:34.991Z,99256.62
2019-02-04T01:59:40.667Z,99263.36
2019-02-04T02:03:46.349Z,99259.67
2019-02-04T02:07:52.164Z,99263.03
2019-02-04T02:11:57.898Z,99267.86
2019-02-04T02:16:03.932Z,99262.94
2019-02-04T02:20:14.484Z,99269.64
2019-02-04T02:24:20.152Z,99263.86
2019-02-04T02:28:25.854Z,99264.79
2019-02-04T02:32:31.542Z,99273.34
2019-02-04T02:36:37.483Z,99278.63
2019-02-04T02:40:43.170Z,99274.06
2019-02-04T02:44:48.855Z,99274.76
2019-02-04T02:48:54.554Z,99276.63
2019-02-04T02:53:00.387Z,99271.05
2019-02-04T02:57:06.210Z,99264.91
2019-02-04T03:01:12.142Z,99271.05
2019-02-04T03:05:18.896Z,99277.34
2019-02-04T03:09:24.574Z,99276.14
2019-02-04T03:13:30.242Z,99281.73
2019-02-04T03:17:35.940Z,99295.98
2019-02-04T03:21:41.620Z,99291.53
2019-02-04T03:25:47.297Z,99295.70
2019-02-04T03:29:53.005Z,99300.37
2019-02-04T03:33:58.662Z,99294.27
2019-02-04T03:38:04.533Z,99297.61
2019-02-04T03:42:10.582Z,99303.45
2019-02-04T03:46:16.504Z,99304.70
2019-02-04T03:50:22.600Z,99309.80
2019-02-04T03:54:28.729Z,99314.87
2019-02-04T03:58:34.448Z,99312.70
2019-02-04T04:02:40.443Z,99317.14
2019-02-04T04:06:46.165Z,99323.17
2019-02-04T04:10:51.861Z,99326.94
2019-02-04T04:14:57.609Z,99334.06
2019-02-04T04:19:03.293Z,99325.38
2019-02-04T04:23:08.978Z,99325.13
2019-02-04T04:27:14.673Z,99323.88
2019-02-04T04:31:20.352Z,99322.63
2019-02-04T04:35:26.209Z,99314.13
2019-02-04T04:39:31.964Z,99313.22
2019-02-04T04:43:37.731Z,99314.67
2019-02-04T04:47:43.426Z,99327.27
2019-02-04T04:51:49.140Z,99326.68
2019-02-04T04:55:54.825Z,99335.28
2019-02-04T05:00:00.507Z,99339.02
2019-02-04T05:04:07.328Z,99328.91
2019-02-04T05:08:13.025Z,99337.39
2019-02-04T05:12:18.935Z,99339.00
2019-02-04T05:16:24.686Z,99336.03
2019-02-04T05:20:30.364Z,99339.05
2019-02-04T05:24:36.052Z,99346.83
2019-02-04T05:28:41.733Z,99340.55
2019-02-04T05:32:47.656Z,99336.45
2019-02-04T05:36:53.345Z,99326.68
2019-02-04T05:40:59.414Z,99327.81
2019-02-04T05:45:08.717Z,99337.25
2019-02-04T05:49:14.383Z,99325.12
2019-02-04T05:53:20.074Z,99336.20
2019-02-04T05:57:25.756Z,99337.05
2019-02-04T06:01:31.446Z,99345.27
2019-02-04T06:05:37.137Z,99345.51
2019-02-04T06:09:43.791Z,99338.67
2019-02-04T06:13:49.549Z,99344.87
2019-02-04T06:17:56.291Z,99344.33
2019-02-04T06:22:02.004Z,99349.55
2019-02-04T06:26:07.806Z,99359.34
2019-02-04T06:30:16.989Z,99354.96
2019-02-04T06:34:23.017Z,99355.92
2019-02-04T06:38:28.726Z,99362.26
2019-02-04T06:42:34.420Z,99372.12
2019-02-04T06:46:40.129Z,99371.84
2019-02-04T06:50:45.822Z,99371.52
2019-02-04T06:54:51.501Z,99373.05
2019-02-04T07:00:16.218Z,99379.57
2019-02-04T07:10:28.309Z,99391.87
2019-02-04T07:15:19.076Z,99380.80
2019-02-04T07:19:24.862Z,99385.46
2019-02-04T07:23:30.624Z,99383.78
2019-02-04T07:27:36.564Z,99383.31
2019-02-04T07:31:42.265Z,99382.44
2019-02-04T07:35:48.005Z,99369.73
2019-02-04T07:39:53.716Z,99374.50
2019-02-04T07:43:59.377Z,99379.72
2019-02-04T07:48:05.331Z,99388.97
2019-02-04T07:52:11.181Z,99390.79
2019-02-04T07:56:17.214Z,99377.23
2019-02-04T08:00:32.583Z,99383.78
2019-02-04T08:04:38.235Z,99377.69
2019-02-04T08:08:43.985Z,99384.00
2019-02-04T08:13:00.595Z,99394.40
2019-02-04T08:16:57.130Z,99392.00
2019-02-04T08:21:02.948Z,99397.03
2019-02-04T08:25:15.115Z,99394.46
2019-02-04T08:29:21.029Z,99392.32
2019-02-04T08:33:26.742Z,99403.45
2019-02-04T08:37:32.420Z,99403.56
2019-02-04T08:41:38.190Z,99406.03
2019-02-04T08:45:44.068Z,99410.88
2019-02-04T08:49:58.046Z,99407.44
2019-02-04T08:53:58.799Z,99404.61
2019-02-04T08:58:05.103Z,99409.48
2019-02-04T09:02:10.986Z,99409.98
2019-02-04T09:06:16.747Z,99406.28
2019-02-04T09:10:26.902Z,99405.48
2019-02-04T09:14:32.756Z,99404.33
2019-02-04T09:18:44.830Z,99411.41
2019-02-04T09:22:46.840Z,99414.17
2019-02-04T09:26:52.599Z,99425.09
2019-02-04T09:30:58.313Z,99414.64
2019-02-04T09:35:05.966Z,99414.44
2019-02-04T09:39:12.293Z,99410.64
2019-02-04T09:43:18.248Z,99401.31
2019-02-04T09:47:23.980Z,99394.52
2019-02-04T09:51:29.683Z,99398.03
2019-02-04T09:55:38.287Z,99390.77
2019-02-04T09:59:43.993Z,99379.58
2019-02-04T10:03:49.707Z,99378.28
2019-02-04T10:07:55.452Z,99375.89
2019-02-04T10:12:01.298Z,99371.80
2019-02-04T10:16:07.547Z,99376.06
2019-02-04T10:20:20.282Z,99376.98
2019-02-04T10:24:26.006Z,99373.33
2019-02-04T10:28:31.848Z,99371.50
2019-02-04T10:32:37.551Z,99372.56
2019-02-04T10:36:43.481Z,99375.67
2019-02-04T10:40:49.190Z,99379.82
2019-02-04T10:44:54.899Z,99385.97
2019-02-04T10:49:00.671Z,99388.44
2019-02-04T10:53:08.175Z,99385.00
2019-02-04T10:57:13.864Z,99380.20
2019-02-04T11:06:29.962Z,99360.69
2019-02-04T11:10:36.434Z,99350.64
2019-02-04T11:14:42.156Z,99341.48
2019-02-04T11:18:47.845Z,99338.34
2019-02-04T11:22:53.825Z,99334.38
2019-02-04T11:26:59.570Z,99323.78
2019-02-04T11:31:05.773Z,99318.73
2019-02-04T11:35:11.771Z,99312.99
2019-02-04T11:39:17.481Z,99301.50
2019-02-04T11:43:23.460Z,99304.38
2019-02-04T11:47:29.452Z,99301.72
2019-02-04T11:51:35.126Z,99286.98
2019-02-04T11:55:41.079Z,99282.27
2019-02-04T11:59:46.775Z,99285.11
2019-02-04T12:03:52.481Z,99288.09
2019-02-04T12:07:58.387Z,99274.94
2019-02-04T12:12:04.335Z,99271.66
2019-02-04T12:16:10.592Z,99268.24
2019-02-04T12:20:18.681Z,99255.55
2019-02-04T12:24:24.371Z,99250.54
2019-02-04T12:28:30.159Z,99246.55
2019-02-04T12:32:35.873Z,99241.78
2019-02-04T12:36:41.626Z,99230.80
2019-02-04T12:40:47.331Z,99217.22
2019-02-04T12:44:53.211Z,99221.02
2019-02-04T12:48:58.855Z,99218.72
2019-02-04T12:53:05.270Z,99205.40
2019-02-04T12:57:10.961Z,99196.50
2019-02-04T13:01:16.667Z,99207.06
2019-02-04T13:05:26.695Z,99190.09
2019-02-04T13:09:32.391Z,99187.58
2019-02-04T13:13:38.238Z,99188.50
2019-02-04T13:17:44.474Z,99185.11
2019-02-04T13:21:50.193Z,99189.16
2019-02-04T13:25:55.930Z,99186.94
2019-02-04T13:30:01.630Z,99186.22
2019-02-04T13:34:08.489Z,99192.23
2019-02-04T13:38:15.208Z,99192.05
2019-02-04T13:42:20.896Z,99190.88
2019-02-04T13:46:26.748Z,99181.50
2019-02-04T13:50:32.506Z,99179.78
2019-02-04T13:54:38.333Z,99176.33
2019-02-04T13:58:44.210Z,99165.45
2019-02-04T14:02:58.886Z,99173.20
2019-02-04T14:06:57.534Z,99170.08
2019-02-04T14:11:04.451Z,99159.70
2019-02-04T14:15:13.542Z,99163.66
2019-02-04T14:19:19.215Z,99171.14
2019-02-04T14:23:27.445Z,99174.80
2019-02-04T14:27:32.491Z,99182.91
2019-02-04T14:31:38.181Z,99181.81
2019-02-04T14:35:44.040Z,99177.08
2019-02-04T14:39:49.723Z,99165.94
2019-02-04T14:43:55.491Z,99173.33
2019-02-04T14:48:17.511Z,99155.11
2019-02-04T14:52:29.046Z,99152.78
2019-02-04T14:56:50.967Z,99155.05
2019-02-04T15:01:09.799Z,99151.59
2019-02-04T15:05:26.337Z,99156.22
2019-02-04T15:10:01.716Z,99154.55
2019-02-04T15:14:38.493Z,99149.09
2019-02-04T15:19:19.845Z,99150.79
2019-02-04T15:23:38.641Z,99150.94
2019-02-04T15:28:00.272Z,99159.69
2019-02-04T15:32:18.947Z,99158.35
2019-02-04T15:36:41.064Z,99162.49
2019-02-04T15:41:23.590Z,99161.94
2019-02-04T15:45:56.211Z,99155.45
2019-02-04T15:50:27.222Z,99155.64
2019-02-04T15:55:18.021Z,99155.78
2019-02-04T15:59:23.728Z,99160.80
2019-02-04T16:08:19.988Z,99152.41
2019-02-04T16:13:18.047Z,99149.24
2019-02-04T16:17:23.722Z,99134.25
2019-02-04T16:22:18.585Z,99145.86
2019-02-04T16:26:24.282Z,99147.27
2019-02-04T16:30:30.057Z,99144.24
2019-02-04T16:35:18.127Z,99141.87
2019-02-04T16:39:23.987Z,99138.20
2019-02-04T16:44:17.996Z,99145.54
2019-02-04T16:53:19.741Z,99148.02
2019-02-04T16:57:25.446Z,99154.71
2019-02-04T17:02:16.757Z,99141.21
2019-02-04T17:06:22.597Z,99154.26
2019-02-04T17:10:28.481Z,99156.26
2019-02-04T17:15:19.105Z,99157.09
2019-02-04T17:19:24.801Z,99157.28
2019-02-04T17:24:18.457Z,99150.47
2019-02-04T17:28:24.301Z,99163.94
2019-02-04T17:33:18.108Z,99168.66
2019-02-04T17:37:23.809Z,99171.41
2019-02-04T17:46:21.802Z,99168.41
2019-02-04T17:50:27.769Z,99167.26
2019-02-04T17:54:33.453Z,99167.58
2019-02-04T17:58:39.254Z,99166.77
2019-02-04T18:02:44.965Z,99174.55
2019-02-04T18:07:20.568Z,99166.45
2019-02-04T18:11:25.227Z,99171.45
2019-02-04T18:15:31.009Z,99179.97
2019-02-04T18:19:36.686Z,99181.12
2019-02-04T18:23:45.992Z,99181.66
2019-02-04T18:27:49.877Z,99187.38
2019-02-04T18:31:56.018Z,99184.08
2019-02-04T18:36:02.764Z,99175.44
2019-02-04T18:40:15.555Z,99177.59
2019-02-04T18:44:21.484Z,99179.53
2019-02-04T18:48:27.503Z,99183.28
2019-02-04T18:52:33.195Z,99185.70
2019-02-04T18:56:38.988Z,99185.96
2019-02-04T19:06:15.092Z,99191.31
2019-02-04T19:10:23.553Z,99185.85
2019-02-04T19:14:29.328Z,99185.80
2019-02-04T19:18:35.039Z,99196.75
2019-02-04T19:22:41.642Z,99189.53
2019-02-04T19:26:47.353Z,99185.08
2019-02-04T19:31:03.374Z,99192.02
2019-02-04T19:35:12.022Z,99191.05
2019-02-04T19:39:17.731Z,99184.38
2019-02-04T19:43:23.430Z,99182.31
2019-02-04T19:48:17.038Z,99188.41
2019-02-04T19:52:22.743Z,99182.38
2019-02-04T19:56:28.491Z,99179.00
2019-02-04T20:00:51.864Z,99185.16
2019-02-04T20:05:24.387Z,99190.04
2019-02-04T20:09:30.167Z,99189.20
2019-02-04T20:13:36.399Z,99181.89
2019-02-04T20:17:42.518Z,99186.05
2019-02-04T20:21:48.282Z,99185.70
2019-02-04T20:26:18.049Z,99190.97
2019-02-04T20:30:44.589Z,99187.66
2019-02-04T20:34:40.724Z,99192.02
2019-02-04T20:39:19.640Z,99194.63
2019-02-04T20:43:26.013Z,99202.16
2019-02-04T20:47:31.843Z,99204.90
2019-02-04T20:56:19.199Z,99215.41
2019-02-04T21:00:30.734Z,99214.69
2019-02-04T21:04:36.471Z,99212.02
2019-02-04T21:08:42.285Z,99218.59
2019-02-04T21:12:48.486Z,99215.13
2019-02-04T21:16:54.373Z,99215.62
2019-02-04T21:21:00.106Z,99216.95
2019-02-04T21:25:09.817Z,99225.10
2019-02-04T21:29:15.541Z,99221.43
2019-02-04T21:33:21.358Z,99211.63
2019-02-04T21:37:27.359Z,99220.03
2019-02-04T21:41:33.093Z,99219.00
2019-02-04T21:45:38.935Z,99218.19
2019-02-04T21:49:44.629Z,99213.56
2019-02-04T21:54:17.295Z,99216.86
2019-02-04T21:58:23.016Z,99207.91
2019-02-04T22:02:28.690Z,99202.69
2019-02-04T22:06:36.388Z,99203.52
2019-02-04T22:11:01.369Z,99195.89
2019-02-04T22:15:09.175Z,99195.48
2019-02-04T22:19:15.899Z,99203.98
2019-02-04T22:23:21.673Z,99206.83
2019-02-04T22:27:47.150Z,99205.83
2019-02-04T22:31:52.825Z,99207.87
2019-02-04T22:35:58.790Z,99216.59
2019-02-04T22:40:07.918Z,99210.28
2019-02-04T22:44:13.798Z,99212.20
2019-02-04T22:48:19.508Z,99208.89
2019-02-04T22:52:25.190Z,99210.95
2019-02-04T22:56:30.963Z,99213.33
2019-02-04T23:00:52.660Z,99215.43
2019-02-04T23:04:58.360Z,99220.30
2019-02-04T23:09:07.499Z,99219.20
2019-02-04T23:13:14.398Z,99224.13
2019-02-04T23:17:20.145Z,99211.73
2019-02-04T23:21:25.919Z,99220.86
2019-02-04T23:25:42.699Z,99216.50
2019-02-04T23:29:39.362Z,99208.71
2019-02-04T23:33:45.051Z,99217.98
2019-02-04T23:37:50.832Z,99223.91
2019-02-04T23:41:58.386Z,99225.48
2019-02-04T23:46:04.057Z,99228.30
2019-02-04T23:50:16.415Z,99221.80
2019-02-04T23:54:22.865Z,99228.47
2019-02-04T23:58:28.558Z,99223.82
